createdAt,value
2023-07-18T00:00:20.793Z,33.33
2023-07-18T00:02:49.614Z,33.66
2023-07-18T00:05:17.928Z,33.68
2023-07-18T00:07:46.409Z,33.90
2023-07-18T00:10:15.382Z,34.05
2023-07-18T00:12:43.688Z,34.23
2023-07-18T00:15:12.655Z,34.34
2023-07-18T00:17:42.570Z,34.58
2023-07-18T00:20:14.601Z,34.79
2023-07-18T00:22:43.546Z,34.97
2023-07-18T00:25:15.163Z,34.92
2023-07-18T00:27:43.496Z,35.08
2023-07-18T00:30:16.106Z,35.23
2023-07-18T00:32:46.282Z,35.56
2023-07-18T00:35:15.859Z,36.13
2023-07-18T00:37:45.728Z,36.07
2023-07-18T00:40:17.796Z,36.01
2023-07-18T00:42:49.411Z,35.88
2023-07-18T00:45:17.848Z,35.83
2023-07-18T00:47:48.366Z,36.08
2023-07-18T00:50:18.873Z,36.18
2023-07-18T00:52:52.240Z,36.40
2023-07-18T00:55:21.710Z,36.83
2023-07-18T00:57:51.816Z,37.46
2023-07-18T01:00:24.629Z,38.27
2023-07-18T01:02:53.518Z,37.97
2023-07-18T01:05:23.028Z,38.66
2023-07-18T01:07:51.432Z,38.61
2023-07-18T01:10:25.798Z,38.49
2023-07-18T01:13:01.351Z,38.53
2023-07-18T01:15:33.348Z,38.45
2023-07-18T01:18:08.567Z,38.66
2023-07-18T01:20:38.459Z,39.13
2023-07-18T01:23:06.956Z,39.07
2023-07-18T01:25:36.240Z,39.67
2023-07-18T01:28:05.185Z,39.35
2023-07-18T01:30:33.698Z,39.79
2023-07-18T01:33:02.096Z,39.77
2023-07-18T01:35:30.459Z,40.11
2023-07-18T01:38:00.583Z,39.93
2023-07-18T01:40:29.038Z,39.87
2023-07-18T01:42:58.638Z,40.31
2023-07-18T01:45:30.034Z,40.03
2023-07-18T01:47:59.179Z,40.35
2023-07-18T01:50:27.905Z,40.47
2023-07-18T01:52:56.270Z,40.44
2023-07-18T01:55:24.592Z,40.14
2023-07-18T01:57:52.925Z,40.01
2023-07-18T02:00:22.567Z,40.33
2023-07-18T02:02:55.860Z,40.61
2023-07-18T02:05:26.986Z,40.76
2023-07-18T02:07:55.361Z,40.84
2023-07-18T02:10:24.158Z,40.75
2023-07-18T02:12:55.051Z,40.81
2023-07-18T02:15:24.188Z,41.18
2023-07-18T02:17:53.366Z,40.85
2023-07-18T02:20:21.766Z,41.08
2023-07-18T02:22:50.477Z,41.05
2023-07-18T02:25:19.697Z,41.14
2023-07-18T02:27:48.076Z,41.48
2023-07-18T02:30:16.616Z,41.52
2023-07-18T02:32:46.409Z,41.72
2023-07-18T02:35:20.247Z,41.64
2023-07-18T02:37:49.288Z,41.86
2023-07-18T02:40:19.661Z,41.88
2023-07-18T02:42:48.303Z,42.28
2023-07-18T02:45:16.633Z,42.40
2023-07-18T02:47:45.060Z,42.63
2023-07-18T02:50:13.412Z,42.81
2023-07-18T02:52:41.750Z,42.68
2023-07-18T02:55:10.505Z,43.03
2023-07-18T02:57:39.832Z,42.94
2023-07-18T03:00:20.449Z,42.87
2023-07-18T03:02:51.589Z,42.97
2023-07-18T03:05:20.824Z,43.14
2023-07-18T03:07:49.116Z,43.03
2023-07-18T03:10:17.772Z,43.26
2023-07-18T03:12:47.392Z,43.30
2023-07-18T03:15:15.724Z,43.53
2023-07-18T03:17:44.406Z,43.67
2023-07-18T03:20:21.318Z,43.56
2023-07-18T03:22:51.219Z,43.76
2023-07-18T03:25:20.142Z,43.86
2023-07-18T03:27:49.304Z,44.10
2023-07-18T03:30:18.162Z,44.36
2023-07-18T03:32:46.605Z,44.16
2023-07-18T03:35:16.077Z,44.36
2023-07-18T03:37:44.689Z,44.50
2023-07-18T03:40:17.942Z,44.91
2023-07-18T03:42:47.539Z,44.78
2023-07-18T03:45:16.256Z,44.96
2023-07-18T03:47:45.490Z,45.21
2023-07-18T03:50:16.198Z,44.99
2023-07-18T03:52:44.769Z,45.01
2023-07-18T03:55:13.350Z,45.19
2023-07-18T03:57:42.049Z,45.25
2023-07-18T04:00:15.887Z,45.45
2023-07-18T04:02:46.842Z,45.41
2023-07-18T04:05:16.705Z,45.19
2023-07-18T04:07:46.043Z,45.62
2023-07-18T04:10:15.225Z,45.77
2023-07-18T04:12:44.249Z,45.42
2023-07-18T04:15:13.721Z,45.82
2023-07-18T04:17:42.227Z,45.65
2023-07-18T04:20:11.272Z,46.04
2023-07-18T04:22:39.612Z,45.87
2023-07-18T04:25:08.900Z,46.21
2023-07-18T04:27:37.173Z,46.12
2023-07-18T04:30:05.837Z,45.96
2023-07-18T04:32:34.123Z,46.39
2023-07-18T04:35:02.405Z,46.66
2023-07-18T04:37:30.721Z,46.68
2023-07-18T04:39:58.977Z,46.86
2023-07-18T04:42:27.257Z,46.75
2023-07-18T04:44:55.518Z,46.51
2023-07-18T04:47:23.968Z,46.79
2023-07-18T04:49:52.317Z,46.74
2023-07-18T04:52:20.577Z,46.83
2023-07-18T04:54:48.840Z,46.93
2023-07-18T04:57:19.672Z,47.55
2023-07-18T04:59:48.222Z,47.70
2023-07-18T05:02:16.445Z,47.53
2023-07-18T05:04:44.731Z,47.63
2023-07-18T05:07:12.975Z,48.00
2023-07-18T05:09:41.193Z,48.53
2023-07-18T05:12:09.877Z,48.79
2023-07-18T05:14:38.144Z,48.92
2023-07-18T05:17:06.459Z,48.77
2023-07-18T05:19:34.794Z,48.54
2023-07-18T05:22:03.067Z,49.04
2023-07-18T05:24:31.328Z,49.25
2023-07-18T05:26:59.579Z,49.11
2023-07-18T05:29:27.881Z,49.52
2023-07-18T05:31:56.201Z,49.90
2023-07-18T05:34:24.863Z,49.60
2023-07-18T05:36:53.329Z,49.89
2023-07-18T05:39:21.569Z,50.12
2023-07-18T05:41:49.785Z,50.31
2023-07-18T05:44:18.480Z,50.40
2023-07-18T05:46:46.720Z,50.47
2023-07-18T05:49:16.222Z,50.82
2023-07-18T05:51:44.489Z,51.12
2023-07-18T05:54:13.090Z,50.90
2023-07-18T05:56:41.396Z,51.05
2023-07-18T05:59:10.326Z,51.18
2023-07-18T06:01:39.014Z,51.57
2023-07-18T06:04:07.382Z,51.74
2023-07-18T06:06:36.697Z,51.93
2023-07-18T06:09:05.049Z,51.79
2023-07-18T06:11:33.297Z,51.95
2023-07-18T06:14:01.800Z,52.17
2023-07-18T06:16:30.072Z,52.39
2023-07-18T06:18:58.348Z,52.45
2023-07-18T06:21:28.442Z,52.33
2023-07-18T06:24:04.740Z,52.39
2023-07-18T06:26:33.462Z,52.69
2023-07-18T06:29:01.736Z,52.71
2023-07-18T06:31:30.356Z,52.85
2023-07-18T06:33:58.650Z,53.22
2023-07-18T06:36:27.904Z,53.03
2023-07-18T06:38:56.198Z,53.42
2023-07-18T06:41:24.448Z,53.25
2023-07-18T06:43:52.661Z,53.19
2023-07-18T06:46:20.954Z,53.39
2023-07-18T06:48:49.212Z,53.62
2023-07-18T06:51:17.799Z,53.90
2023-07-18T06:53:46.961Z,54.11
2023-07-18T06:56:15.168Z,54.26
2023-07-18T06:58:43.861Z,54.39
2023-07-18T07:01:12.554Z,54.85
2023-07-18T07:03:40.900Z,54.79
2023-07-18T07:06:13.737Z,55.13
2023-07-18T07:08:42.124Z,54.82
2023-07-18T07:11:11.985Z,55.04
2023-07-18T07:13:40.454Z,54.88
2023-07-18T07:16:09.154Z,54.89
2023-07-18T07:18:37.531Z,54.97
2023-07-18T07:21:07.427Z,55.02
2023-07-18T07:23:35.650Z,55.19
2023-07-18T07:26:04.129Z,55.24
2023-07-18T07:28:32.437Z,55.13
2023-07-18T07:31:05.276Z,55.24
2023-07-18T07:33:34.124Z,54.96
2023-07-18T07:36:02.413Z,54.95
2023-07-18T07:38:30.725Z,54.97
2023-07-18T07:40:59.289Z,54.99
2023-07-18T07:43:27.551Z,55.05
2023-07-18T07:45:55.868Z,55.23
2023-07-18T07:48:24.089Z,55.18
2023-07-18T07:50:52.466Z,55.11
2023-07-18T07:53:20.786Z,55.00
2023-07-18T07:55:49.032Z,55.12
2023-07-18T07:58:17.264Z,55.17
2023-07-18T08:00:45.589Z,55.33
2023-07-18T08:03:13.906Z,55.33
2023-07-18T08:05:42.128Z,55.51
2023-07-18T08:08:12.153Z,55.60
2023-07-18T08:10:40.450Z,55.75
2023-07-18T08:13:09.597Z,55.65
2023-07-18T08:15:37.953Z,55.69
2023-07-18T08:18:06.541Z,55.77
2023-07-18T08:20:34.865Z,55.91
2023-07-18T08:23:03.284Z,55.91
2023-07-18T08:25:32.580Z,56.25
2023-07-18T08:28:01.125Z,56.30
2023-07-18T08:30:29.359Z,56.39
2023-07-18T08:32:57.733Z,56.37
2023-07-18T08:35:26.070Z,56.39
2023-07-18T08:37:55.335Z,56.63
2023-07-18T08:40:23.668Z,56.84
2023-07-18T08:42:53.739Z,56.62
2023-07-18T08:45:24.862Z,56.67
2023-07-18T08:47:58.165Z,56.66
2023-07-18T08:50:28.314Z,56.69
2023-07-18T08:52:56.611Z,56.57
2023-07-18T08:55:25.401Z,56.58
2023-07-18T08:57:53.764Z,56.61
2023-07-18T09:00:22.342Z,56.96
2023-07-18T09:02:53.339Z,56.97
2023-07-18T09:05:33.516Z,57.06
2023-07-18T09:08:03.461Z,57.21
2023-07-18T09:10:32.815Z,57.06
2023-07-18T09:13:07.011Z,57.21
2023-07-18T09:15:39.223Z,57.43
2023-07-18T09:18:11.052Z,57.26
2023-07-18T09:20:39.916Z,57.43
2023-07-18T09:23:08.326Z,57.57
2023-07-18T09:25:41.988Z,57.46
2023-07-18T09:28:16.515Z,57.67
2023-07-18T09:30:44.804Z,57.97
2023-07-18T09:33:13.041Z,57.96
2023-07-18T09:35:42.283Z,58.25
2023-07-18T09:38:11.945Z,58.31
2023-07-18T09:40:40.748Z,58.33
2023-07-18T09:43:09.340Z,58.24
2023-07-18T09:45:38.888Z,58.54
2023-07-18T09:48:09.315Z,58.33
2023-07-18T09:50:43.621Z,58.43
2023-07-18T09:53:14.470Z,58.31
2023-07-18T09:55:43.554Z,58.45
2023-07-18T09:58:14.232Z,58.48
2023-07-18T10:00:47.426Z,58.64
2023-07-18T10:03:17.371Z,58.58
2023-07-18T10:05:46.675Z,58.70
2023-07-18T10:08:15.266Z,58.74
2023-07-18T10:10:43.613Z,59.00
2023-07-18T10:13:11.872Z,58.96
2023-07-18T10:16:29.298Z,59.19
2023-07-18T10:18:58.644Z,59.54
2023-07-18T10:21:32.439Z,59.19
2023-07-18T10:24:26.170Z,59.25
2023-07-18T10:26:56.265Z,59.36
2023-07-18T10:29:24.628Z,59.33
2023-07-18T10:31:55.241Z,59.43
2023-07-18T10:34:23.929Z,59.67
2023-07-18T10:37:03.208Z,59.51
2023-07-18T10:39:41.934Z,59.61
2023-07-18T10:42:21.704Z,59.70
2023-07-18T10:44:51.018Z,59.90
2023-07-18T10:47:21.277Z,59.87
2023-07-18T10:49:49.855Z,60.05
2023-07-18T10:52:19.324Z,59.91
2023-07-18T10:54:57.312Z,59.83
2023-07-18T10:57:30.816Z,60.25
2023-07-18T11:00:01.153Z,60.22
2023-07-18T11:02:36.337Z,60.29
2023-07-18T11:05:15.657Z,60.80
2023-07-18T11:07:53.664Z,60.76
2023-07-18T11:10:22.443Z,60.72
2023-07-18T11:12:54.236Z,60.62
2023-07-18T11:15:25.444Z,60.81
2023-07-18T11:17:55.621Z,60.96
2023-07-18T11:20:24.784Z,60.97
2023-07-18T11:22:53.321Z,61.29
2023-07-18T11:25:21.588Z,61.22
2023-07-18T11:27:51.488Z,61.52
2023-07-18T11:30:24.107Z,61.53
2023-07-18T11:32:52.442Z,61.57
2023-07-18T11:35:22.691Z,61.66
2023-07-18T11:37:55.796Z,61.84
2023-07-18T11:40:27.668Z,61.79
2023-07-18T11:43:02.786Z,61.74
2023-07-18T11:45:31.407Z,61.82
2023-07-18T11:48:01.251Z,62.23
2023-07-18T11:50:31.152Z,62.08
2023-07-18T11:53:01.258Z,62.19
2023-07-18T11:55:30.073Z,62.30
2023-07-18T11:57:58.466Z,62.52
2023-07-18T12:00:28.121Z,62.42
2023-07-18T12:02:56.507Z,62.51
2023-07-18T12:05:26.555Z,62.43
2023-07-18T12:07:54.786Z,62.51
2023-07-18T12:10:24.899Z,62.67
2023-07-18T12:12:54.438Z,62.47
2023-07-18T12:15:22.649Z,62.49
2023-07-18T12:17:50.928Z,62.67
2023-07-18T12:20:19.227Z,62.89
2023-07-18T12:22:47.499Z,63.02
2023-07-18T12:25:17.330Z,63.08
2023-07-18T12:27:45.584Z,63.44
2023-07-18T12:30:14.078Z,63.21
2023-07-18T12:32:42.692Z,63.38
2023-07-18T12:35:11.325Z,63.46
2023-07-18T12:37:39.583Z,63.37
2023-07-18T12:40:09.391Z,63.46
2023-07-18T12:42:37.771Z,63.50
2023-07-18T12:45:06.475Z,63.72
2023-07-18T12:47:34.733Z,63.88
2023-07-18T12:50:03.007Z,63.95
2023-07-18T12:52:31.251Z,63.88
2023-07-18T12:55:00.029Z,64.30
2023-07-18T12:57:32.392Z,64.01
2023-07-18T13:00:01.102Z,64.27
2023-07-18T13:02:30.475Z,64.29
2023-07-18T13:04:59.107Z,64.36
2023-07-18T13:07:27.356Z,64.33
2023-07-18T13:09:55.650Z,64.39
2023-07-18T13:12:23.943Z,64.54
2023-07-18T13:14:52.189Z,64.64
2023-07-18T13:17:22.870Z,64.91
2023-07-18T13:19:51.126Z,64.89
2023-07-18T13:22:19.355Z,65.02
2023-07-18T13:24:47.590Z,64.79
2023-07-18T13:27:15.805Z,64.89
2023-07-18T13:29:44.674Z,65.04
2023-07-18T13:32:12.951Z,65.01
2023-07-18T13:34:41.205Z,65.08
2023-07-18T13:37:09.499Z,65.19
2023-07-18T13:39:37.817Z,65.25
2023-07-18T13:42:06.510Z,65.36
2023-07-18T13:44:35.347Z,65.08
2023-07-18T13:47:04.851Z,65.29
2023-07-18T13:52:05.140Z,65.37
2023-07-18T13:54:33.360Z,65.46
2023-07-18T13:57:01.583Z,65.20
2023-07-18T13:59:29.816Z,65.12
2023-07-18T14:01:58.208Z,65.06
2023-07-18T14:04:26.716Z,64.78
2023-07-18T14:06:55.175Z,64.67
2023-07-18T14:09:23.598Z,64.77
2023-07-18T14:11:51.997Z,64.74
2023-07-18T14:14:20.283Z,64.75
2023-07-18T14:16:48.804Z,64.71
2023-07-18T14:19:17.207Z,64.74
2023-07-18T14:21:45.462Z,64.75
2023-07-18T14:24:13.870Z,64.62
2023-07-18T14:26:42.146Z,64.68
2023-07-18T14:29:10.680Z,64.73
2023-07-18T14:31:40.784Z,64.32
2023-07-18T14:34:09.184Z,64.23
2023-07-18T14:36:37.454Z,64.23
2023-07-18T14:39:06.601Z,63.95
2023-07-18T14:41:35.029Z,64.00
2023-07-18T14:44:03.307Z,63.75
2023-07-18T14:46:31.596Z,63.75
2023-07-18T14:48:59.928Z,63.68
2023-07-18T14:51:28.253Z,63.63
2023-07-18T14:53:56.504Z,63.62
2023-07-18T14:56:26.640Z,63.36
2023-07-18T14:58:54.885Z,63.17
2023-07-18T15:01:23.465Z,63.05
2023-07-18T15:03:52.095Z,62.88
2023-07-18T15:06:20.710Z,62.72
2023-07-18T15:08:52.783Z,62.56
2023-07-18T15:11:21.132Z,62.84
2023-07-18T15:13:49.386Z,62.56
2023-07-18T15:16:18.760Z,62.32
2023-07-18T15:18:47.324Z,62.45
2023-07-18T15:21:15.614Z,62.18
2023-07-18T15:23:43.928Z,62.11
2023-07-18T15:26:15.556Z,61.87
2023-07-18T15:28:44.549Z,61.40
2023-07-18T15:31:12.781Z,61.45
2023-07-18T15:33:41.155Z,60.96
2023-07-18T15:36:10.510Z,60.78
2023-07-18T15:38:38.967Z,60.33
2023-07-18T15:41:07.255Z,60.21
2023-07-18T15:43:36.522Z,60.01
2023-07-18T15:46:05.524Z,59.65
2023-07-18T15:48:33.792Z,59.34
2023-07-18T15:51:02.120Z,59.34
2023-07-18T15:53:30.930Z,59.16
2023-07-18T15:55:59.198Z,59.10
2023-07-18T15:58:27.504Z,58.78
2023-07-18T16:00:58.507Z,58.70
2023-07-18T16:03:26.888Z,58.47
2023-07-18T16:05:55.425Z,58.42
2023-07-18T16:08:23.820Z,57.83
2023-07-18T16:10:52.090Z,57.60
2023-07-18T16:13:20.486Z,57.29
2023-07-18T16:15:49.088Z,57.33
2023-07-18T16:18:17.889Z,57.28
2023-07-18T16:20:46.334Z,57.17
2023-07-18T16:23:14.801Z,57.14
2023-07-18T16:25:43.175Z,56.62
2023-07-18T16:28:11.528Z,57.04
2023-07-18T16:30:39.770Z,56.29
2023-07-18T16:33:08.343Z,56.23
2023-07-18T16:35:37.337Z,56.57
2023-07-18T16:38:05.616Z,56.27
2023-07-18T16:40:34.506Z,55.81
2023-07-18T16:43:02.760Z,55.62
2023-07-18T16:45:31.012Z,55.93
2023-07-18T16:47:59.275Z,55.48
2023-07-18T16:50:27.560Z,55.59
2023-07-18T16:52:55.870Z,54.96
2023-07-18T16:55:24.202Z,55.02
2023-07-18T16:57:52.442Z,54.83
2023-07-18T17:00:20.850Z,54.89
2023-07-18T17:02:49.140Z,54.94
2023-07-18T17:05:17.525Z,54.70
2023-07-18T17:07:45.973Z,54.74
2023-07-18T17:10:14.175Z,54.35
2023-07-18T17:12:42.510Z,53.92
2023-07-18T17:15:14.362Z,54.16
2023-07-18T17:17:42.663Z,53.58
2023-07-18T17:20:14.336Z,53.71
2023-07-18T17:22:43.064Z,53.37
2023-07-18T17:25:11.619Z,53.27
2023-07-18T17:27:39.880Z,52.99
2023-07-18T17:30:09.462Z,53.02
2023-07-18T17:32:38.462Z,52.84
2023-07-18T17:35:07.176Z,52.53
2023-07-18T17:37:35.618Z,52.18
2023-07-18T17:40:04.512Z,51.85
2023-07-18T17:42:32.754Z,51.90
2023-07-18T17:45:01.018Z,51.92
2023-07-18T17:47:29.759Z,51.44
2023-07-18T17:49:58.032Z,51.67
2023-07-18T17:52:27.886Z,51.62
2023-07-18T17:54:56.197Z,51.51
2023-07-18T17:57:25.477Z,51.49
2023-07-18T17:59:54.352Z,51.33
2023-07-18T18:02:22.740Z,51.67
2023-07-18T18:04:52.108Z,51.29
2023-07-18T18:07:20.417Z,50.91
2023-07-18T18:09:49.187Z,50.55
2023-07-18T18:12:17.497Z,50.22
2023-07-18T18:14:46.100Z,50.12
2023-07-18T18:17:14.374Z,49.90
2023-07-18T18:19:42.745Z,49.82
2023-07-18T18:22:11.420Z,49.13
2023-07-18T18:24:39.802Z,49.39
2023-07-18T18:27:08.690Z,49.20
2023-07-18T18:29:36.958Z,49.05
2023-07-18T18:32:06.560Z,49.22
2023-07-18T18:34:34.833Z,49.33
2023-07-18T18:37:03.095Z,48.98
2023-07-18T18:39:31.376Z,48.92
2023-07-18T18:41:59.749Z,48.46
2023-07-18T18:44:28.048Z,48.56
2023-07-18T18:46:56.572Z,48.97
2023-07-18T18:49:27.224Z,48.58
2023-07-18T18:51:56.579Z,47.95
2023-07-18T18:54:24.988Z,48.24
2023-07-18T18:56:54.704Z,48.14
2023-07-18T18:59:23.123Z,48.01
2023-07-18T19:01:52.072Z,47.90
2023-07-18T19:04:20.531Z,47.89
2023-07-18T19:06:48.838Z,48.01
2023-07-18T19:09:17.181Z,47.59
2023-07-18T19:11:45.430Z,47.72
2023-07-18T19:14:13.755Z,46.94
2023-07-18T19:16:42.115Z,47.00
2023-07-18T19:19:12.569Z,46.70
2023-07-18T19:21:40.777Z,46.64
2023-07-18T19:24:09.110Z,46.26
2023-07-18T19:26:37.464Z,46.27
2023-07-18T19:29:05.766Z,45.84
2023-07-18T19:31:34.121Z,46.29
2023-07-18T19:34:02.466Z,46.14
2023-07-18T19:36:30.736Z,46.14
2023-07-18T19:38:59.033Z,45.15
2023-07-18T19:41:27.319Z,45.57
2023-07-18T19:43:55.669Z,44.78
2023-07-18T19:46:24.833Z,45.05
2023-07-18T19:48:53.124Z,45.02
2023-07-18T19:51:22.376Z,45.01
2023-07-18T19:53:50.831Z,44.79
2023-07-18T19:56:19.145Z,43.79
2023-07-18T19:58:47.389Z,44.09
2023-07-18T20:01:17.357Z,44.14
2023-07-18T20:03:58.658Z,43.93
2023-07-18T20:06:29.856Z,42.13
2023-07-18T20:08:58.842Z,43.17
2023-07-18T20:11:27.145Z,43.90
2023-07-18T20:13:55.646Z,43.50
2023-07-18T20:16:24.001Z,43.59
2023-07-18T20:18:56.301Z,43.06
2023-07-18T20:21:27.131Z,43.29
2023-07-18T20:23:55.440Z,43.21
2023-07-18T20:26:24.024Z,43.07
2023-07-18T20:28:52.402Z,42.29
2023-07-18T20:31:21.179Z,41.80
2023-07-18T20:33:50.718Z,42.09
2023-07-18T20:36:18.980Z,41.67
2023-07-18T20:38:48.159Z,41.45
2023-07-18T20:41:16.663Z,41.65
2023-07-18T20:43:44.902Z,41.74
2023-07-18T20:46:14.982Z,41.54
2023-07-18T20:48:43.275Z,41.03
2023-07-18T20:51:11.612Z,40.99
2023-07-18T20:53:39.991Z,41.12
2023-07-18T20:56:08.576Z,40.18
2023-07-18T20:58:37.039Z,40.47
2023-07-18T21:01:05.568Z,40.40
2023-07-18T21:03:33.965Z,40.75
2023-07-18T21:06:02.336Z,39.97
2023-07-18T21:08:30.665Z,40.13
2023-07-18T21:10:58.994Z,40.01
2023-07-18T21:13:27.371Z,38.68
2023-07-18T21:15:55.694Z,39.28
2023-07-18T21:18:23.995Z,39.07
2023-07-18T21:20:52.278Z,39.10
2023-07-18T21:23:22.198Z,39.18
2023-07-18T21:25:50.776Z,39.09
2023-07-18T21:28:19.039Z,38.99
2023-07-18T21:30:47.321Z,38.06
2023-07-18T21:33:15.528Z,38.54
2023-07-18T21:35:43.782Z,38.31
2023-07-18T21:38:12.029Z,38.50
2023-07-18T21:40:40.271Z,38.47
2023-07-18T21:43:08.746Z,37.87
2023-07-18T21:45:37.451Z,37.68
2023-07-18T21:48:06.025Z,37.91
2023-07-18T21:50:34.354Z,37.71
2023-07-18T21:53:02.641Z,37.84
2023-07-18T21:55:31.006Z,37.51
2023-07-18T21:57:59.287Z,37.72
2023-07-18T22:00:27.591Z,37.59
2023-07-18T22:02:57.031Z,37.48
2023-07-18T22:05:25.597Z,37.26
2023-07-18T22:07:53.790Z,36.71
2023-07-18T22:10:22.117Z,36.14
2023-07-18T22:12:50.371Z,36.87
2023-07-18T22:15:20.740Z,36.90
2023-07-18T22:17:50.089Z,36.27
2023-07-18T22:20:18.414Z,35.72
2023-07-18T22:22:46.683Z,36.51
2023-07-18T22:25:14.971Z,36.49
2023-07-18T22:27:43.283Z,35.94
2023-07-18T22:30:11.828Z,35.84
2023-07-18T22:32:40.078Z,36.30
2023-07-18T22:35:09.049Z,36.53
2023-07-18T22:37:37.787Z,36.52
2023-07-18T22:40:06.482Z,36.32
2023-07-18T22:42:34.771Z,36.40
2023-07-18T22:45:03.000Z,36.55
2023-07-18T22:47:31.263Z,36.52
2023-07-18T22:49:59.486Z,36.77
2023-07-18T22:52:27.745Z,36.51
2023-07-18T22:54:55.996Z,36.74
2023-07-18T22:57:24.590Z,36.95
2023-07-18T22:59:53.749Z,37.38
2023-07-18T23:02:22.264Z,37.49
2023-07-18T23:04:50.645Z,37.83
2023-07-18T23:07:18.868Z,37.40
2023-07-18T23:09:47.166Z,38.03
2023-07-18T23:12:17.054Z,38.24
2023-07-18T23:14:45.376Z,38.25
2023-07-18T23:17:15.198Z,38.55
2023-07-18T23:19:44.044Z,38.28
2023-07-18T23:22:12.304Z,39.01
2023-07-18T23:24:40.580Z,38.75
2023-07-18T23:27:09.085Z,38.68
2023-07-18T23:29:37.398Z,39.30
2023-07-18T23:32:05.864Z,39.58
2023-07-18T23:34:34.167Z,39.40
2023-07-18T23:37:02.432Z,39.77
2023-07-18T23:39:30.720Z,39.66
2023-07-18T23:41:58.930Z,39.92
2023-07-18T23:44:27.172Z,40.38
2023-07-18T23:46:55.449Z,40.18
2023-07-18T23:49:23.784Z,40.69
2023-07-18T23:51:52.173Z,40.95
2023-07-18T23:54:20.413Z,40.74
2023-07-18T23:56:48.618Z,41.09
2023-07-18T23:59:17.950Z,41.48
